Pagrindinis puslapis
METAR-TAF:

METAR-TAF

Oro uostai :

Pernu, Estija

platuma: 58-25-09N, ilguma: 024-28-22E, Aukštis: 14 m

Dabartinis oras

Ataskaita buvo paskelbta 58 minutes, ne 06:50 UTC
Vėjas 5 kt iš Pietryčių, svyruoja nuo Rytų/Šiaurės Rytų ir Pietų
Temperatūra 1°C
Drėgmė 100%
Slėgis 994 hPa
Matomumas: 3600 m
Su prošvaistėmis ne aukštis 700 ft
lietus, rūkana

METAR: EEPU 150650Z 13005KT 070V190 3600 -RA BR BKN007 01/01 Q0994

Laikas: 09:48 (07:48 UTC)


TAF: trūkstamas

Orai ataskaitas ir orų prognozės (METAR, TAF).

turimą stotys yra geltonos ir raudonos taškus žemėlapyje.

Perkelti pele per norėdami pamatyti stoties vardą.

Tada spustelėkite, norėdami matyti oro stebėjimo ir prognozės.

Norėdami pakeisti žemėlapį: spustelėkite ant žalios mygtukų su juodo kryžiaus žemyn,; žalią mygtuką su brūkšneliu, jei norite nutolinti; arba žalių rodyklių gretimoms žemėlapius.


METAR-TAF: